El Galpon, Argentina
Current Conditions -  °F | °C
As of 12:00 PM on Friday 24 Oct 2014 (Local Time) from SASA Reporting Station
Few Clouds Few Clouds  
Wind Chill: 81°   Ceiling: Unl
Heat Index: 82°   Visibility: 6mi
Dew Point: 63°   Wind: 3mph
Humidity: 54%   Direction: 290°WNW
Pressure: 30.15"   Gusts: NA
Location:  25.38°S, 64.63°W
Report Text: SASA 241500Z 29003KT 9999 FEW020 FEW025CB27/17 Q1021
Loading
Personal Weather Stations






























Interactive Weather Map
Tropical Storm Tracking
New forecast layout! Learn more

10-Day Weather Forecast

Advertisements
Track Severe Weather on mobile